sensor_id;sensor_type;location;lat;lon;timestamp;P1;durP1;ratioP1;P2;durP2;ratioP2
13425;SDS011;6785;57.918;12.530;2024-03-02T00:00:50;69.37;;;25.10;;
13425;SDS011;6785;57.918;12.530;2024-03-02T00:03:17;86.47;;;26.60;;
13425;SDS011;6785;57.918;12.530;2024-03-02T00:05:44;64.40;;;25.27;;
13425;SDS011;6785;57.918;12.530;2024-03-02T00:08:16;67.47;;;25.60;;
13425;SDS011;6785;57.918;12.530;2024-03-02T00:10:50;59.27;;;22.77;;
13425;SDS011;6785;57.918;12.530;2024-03-02T00:13:19;63.43;;;25.30;;
13425;SDS011;6785;57.918;12.530;2024-03-02T00:15:51;66.47;;;25.70;;
13425;SDS011;6785;57.918;12.530;2024-03-02T00:18:19;84.97;;;26.03;;
13425;SDS011;6785;57.918;12.530;2024-03-02T00:20:47;69.80;;;24.17;;
13425;SDS011;6785;57.918;12.530;2024-03-02T00:23:14;75.83;;;26.00;;
13425;SDS011;6785;57.918;12.530;2024-03-02T00:25:44;65.17;;;26.30;;
13425;SDS011;6785;57.918;12.530;2024-03-02T00:28:16;69.60;;;24.30;;
13425;SDS011;6785;57.918;12.530;2024-03-02T00:30:56;83.00;;;24.07;;
13425;SDS011;6785;57.918;12.530;2024-03-02T00:33:30;119.90;;;25.20;;
13425;SDS011;6785;57.918;12.530;2024-03-02T00:35:58;136.63;;;26.07;;
13425;SDS011;6785;57.918;12.530;2024-03-02T00:38:25;53.23;;;22.07;;
13425;SDS011;6785;57.918;12.530;2024-03-02T00:40:53;53.87;;;23.37;;
13425;SDS011;6785;57.918;12.530;2024-03-02T00:46:11;68.07;;;23.67;;
13425;SDS011;6785;57.918;12.530;2024-03-02T00:48:39;78.43;;;23.37;;
13425;SDS011;6785;57.918;12.530;2024-03-02T00:51:11;62.90;;;22.70;;
13425;SDS011;6785;57.918;12.530;2024-03-02T00:53:39;143.60;;;28.33;;
13425;SDS011;6785;57.918;12.530;2024-03-02T00:56:06;72.73;;;23.90;;
13425;SDS011;6785;57.918;12.530;2024-03-02T00:58:36;118.73;;;26.27;;
13425;SDS011;6785;57.918;12.530;2024-03-02T01:01:03;132.27;;;26.03;;
13425;SDS011;6785;57.918;12.530;2024-03-02T01:03:32;190.37;;;30.10;;
13425;SDS011;6785;57.918;12.530;2024-03-02T01:05:59;134.80;;;27.93;;
13425;SDS011;6785;57.918;12.530;2024-03-02T01:08:27;199.00;;;30.17;;
13425;SDS011;6785;57.918;12.530;2024-03-02T01:10:54;422.90;;;46.13;;
13425;SDS011;6785;57.918;12.530;2024-03-02T01:13:21;554.43;;;52.83;;
13425;SDS011;6785;57.918;12.530;2024-03-02T01:15:49;290.90;;;37.17;;
13425;SDS011;6785;57.918;12.530;2024-03-02T01:18:16;51.17;;;21.27;;
13425;SDS011;6785;57.918;12.530;2024-03-02T01:20:44;90.13;;;22.93;;
13425;SDS011;6785;57.918;12.530;2024-03-02T01:23:11;70.30;;;22.50;;
13425;SDS011;6785;57.918;12.530;2024-03-02T01:25:38;251.40;;;32.20;;
13425;SDS011;6785;57.918;12.530;2024-03-02T01:28:05;140.17;;;25.20;;
13425;SDS011;6785;57.918;12.530;2024-03-02T01:30:32;101.73;;;23.20;;
13425;SDS011;6785;57.918;12.530;2024-03-02T01:32:58;103.60;;;25.00;;
13425;SDS011;6785;57.918;12.530;2024-03-02T01:35:27;136.13;;;26.33;;
13425;SDS011;6785;57.918;12.530;2024-03-02T01:37:55;178.57;;;27.57;;
13425;SDS011;6785;57.918;12.530;2024-03-02T01:40:22;116.93;;;23.10;;
13425;SDS011;6785;57.918;12.530;2024-03-02T01:42:51;332.93;;;36.67;;
13425;SDS011;6785;57.918;12.530;2024-03-02T01:45:18;49.27;;;19.90;;
13425;SDS011;6785;57.918;12.530;2024-03-02T01:47:45;48.67;;;20.57;;
13425;SDS011;6785;57.918;12.530;2024-03-02T01:50:12;66.20;;;22.13;;
13425;SDS011;6785;57.918;12.530;2024-03-02T01:52:39;71.13;;;21.23;;
13425;SDS011;6785;57.918;12.530;2024-03-02T01:55:08;186.63;;;27.27;;
13425;SDS011;6785;57.918;12.530;2024-03-02T01:57:35;159.57;;;26.90;;
13425;SDS011;6785;57.918;12.530;2024-03-02T02:00:02;267.10;;;32.30;;
13425;SDS011;6785;57.918;12.530;2024-03-02T02:02:30;267.03;;;34.03;;
13425;SDS011;6785;57.918;12.530;2024-03-02T02:04:57;112.03;;;22.60;;
13425;SDS011;6785;57.918;12.530;2024-03-02T02:07:24;354.97;;;38.67;;
13425;SDS011;6785;57.918;12.530;2024-03-02T02:09:51;113.33;;;25.40;;
13425;SDS011;6785;57.918;12.530;2024-03-02T02:12:19;124.80;;;28.20;;
13425;SDS011;6785;57.918;12.530;2024-03-02T02:14:49;66.67;;;20.47;;
13425;SDS011;6785;57.918;12.530;2024-03-02T02:17:16;41.37;;;19.13;;
13425;SDS011;6785;57.918;12.530;2024-03-02T02:19:42;67.83;;;20.30;;
13425;SDS011;6785;57.918;12.530;2024-03-02T02:22:10;135.53;;;23.70;;
13425;SDS011;6785;57.918;12.530;2024-03-02T02:24:39;74.27;;;20.90;;
13425;SDS011;6785;57.918;12.530;2024-03-02T02:27:07;60.27;;;19.47;;
13425;SDS011;6785;57.918;12.530;2024-03-02T02:29:33;36.70;;;17.80;;
13425;SDS011;6785;57.918;12.530;2024-03-02T02:32:02;36.43;;;17.33;;
13425;SDS011;6785;57.918;12.530;2024-03-02T02:34:30;40.13;;;17.67;;
13425;SDS011;6785;57.918;12.530;2024-03-02T02:36:56;44.27;;;19.90;;
13425;SDS011;6785;57.918;12.530;2024-03-02T02:39:25;79.20;;;21.83;;
13425;SDS011;6785;57.918;12.530;2024-03-02T02:41:53;90.97;;;20.23;;
13425;SDS011;6785;57.918;12.530;2024-03-02T02:44:20;42.67;;;18.60;;
13425;SDS011;6785;57.918;12.530;2024-03-02T02:46:46;61.23;;;21.73;;
13425;SDS011;6785;57.918;12.530;2024-03-02T02:49:13;67.77;;;23.10;;
13425;SDS011;6785;57.918;12.530;2024-03-02T02:51:42;60.40;;;22.13;;
13425;SDS011;6785;57.918;12.530;2024-03-02T02:54:09;57.93;;;22.27;;
13425;SDS011;6785;57.918;12.530;2024-03-02T02:56:37;85.93;;;25.67;;
13425;SDS011;6785;57.918;12.530;2024-03-02T02:59:04;82.13;;;24.63;;
13425;SDS011;6785;57.918;12.530;2024-03-02T03:01:31;189.63;;;31.27;;
13425;SDS011;6785;57.918;12.530;2024-03-02T03:03:58;80.03;;;24.60;;
13425;SDS011;6785;57.918;12.530;2024-03-02T03:06:25;211.70;;;31.67;;
13425;SDS011;6785;57.918;12.530;2024-03-02T03:08:52;113.80;;;27.13;;
13425;SDS011;6785;57.918;12.530;2024-03-02T03:11:19;97.00;;;26.90;;
13425;SDS011;6785;57.918;12.530;2024-03-02T03:13:49;81.37;;;25.37;;
13425;SDS011;6785;57.918;12.530;2024-03-02T03:16:15;83.53;;;25.23;;
13425;SDS011;6785;57.918;12.530;2024-03-02T03:18:45;78.40;;;24.90;;
13425;SDS011;6785;57.918;12.530;2024-03-02T03:21:11;74.83;;;25.77;;
13425;SDS011;6785;57.918;12.530;2024-03-02T03:23:38;89.23;;;28.20;;
13425;SDS011;6785;57.918;12.530;2024-03-02T03:26:05;81.00;;;26.67;;
13425;SDS011;6785;57.918;12.530;2024-03-02T03:28:32;72.57;;;24.83;;
13425;SDS011;6785;57.918;12.530;2024-03-02T03:31:00;111.50;;;27.00;;
13425;SDS011;6785;57.918;12.530;2024-03-02T03:33:27;85.83;;;26.07;;
13425;SDS011;6785;57.918;12.530;2024-03-02T03:35:54;61.53;;;24.57;;
13425;SDS011;6785;57.918;12.530;2024-03-02T03:38:21;92.13;;;26.83;;
13425;SDS011;6785;57.918;12.530;2024-03-02T03:40:47;103.63;;;26.83;;
13425;SDS011;6785;57.918;12.530;2024-03-02T03:43:14;83.63;;;25.50;;
13425;SDS011;6785;57.918;12.530;2024-03-02T03:45:41;87.87;;;27.83;;
13425;SDS011;6785;57.918;12.530;2024-03-02T03:48:09;83.77;;;27.37;;
13425;SDS011;6785;57.918;12.530;2024-03-02T03:50:36;82.40;;;26.90;;
13425;SDS011;6785;57.918;12.530;2024-03-02T03:53:03;94.80;;;28.07;;
13425;SDS011;6785;57.918;12.530;2024-03-02T03:55:30;90.27;;;27.07;;
13425;SDS011;6785;57.918;12.530;2024-03-02T03:57:57;69.13;;;24.37;;
13425;SDS011;6785;57.918;12.530;2024-03-02T04:00:24;89.00;;;27.60;;
13425;SDS011;6785;57.918;12.530;2024-03-02T04:02:51;96.87;;;28.37;;
13425;SDS011;6785;57.918;12.530;2024-03-02T04:05:19;77.83;;;27.33;;
13425;SDS011;6785;57.918;12.530;2024-03-02T04:07:46;84.10;;;27.93;;
13425;SDS011;6785;57.918;12.530;2024-03-02T04:10:12;92.00;;;28.47;;
13425;SDS011;6785;57.918;12.530;2024-03-02T04:12:41;90.90;;;28.27;;
13425;SDS011;6785;57.918;12.530;2024-03-02T04:15:08;93.30;;;27.63;;
13425;SDS011;6785;57.918;12.530;2024-03-02T04:17:35;93.00;;;26.97;;
13425;SDS011;6785;57.918;12.530;2024-03-02T04:20:02;92.97;;;28.10;;
13425;SDS011;6785;57.918;12.530;2024-03-02T04:22:32;100.07;;;29.60;;
13425;SDS011;6785;57.918;12.530;2024-03-02T04:25:00;92.07;;;28.83;;
13425;SDS011;6785;57.918;12.530;2024-03-02T04:27:29;85.63;;;28.60;;
13425;SDS011;6785;57.918;12.530;2024-03-02T04:29:56;90.80;;;28.90;;
13425;SDS011;6785;57.918;12.530;2024-03-02T04:32:23;100.87;;;30.33;;
13425;SDS011;6785;57.918;12.530;2024-03-02T04:34:50;164.60;;;33.73;;
13425;SDS011;6785;57.918;12.530;2024-03-02T04:37:16;128.13;;;30.03;;
13425;SDS011;6785;57.918;12.530;2024-03-02T04:39:45;225.13;;;35.00;;
13425;SDS011;6785;57.918;12.530;2024-03-02T04:42:11;249.30;;;38.57;;
13425;SDS011;6785;57.918;12.530;2024-03-02T04:44:38;415.23;;;48.13;;
13425;SDS011;6785;57.918;12.530;2024-03-02T04:47:05;310.83;;;40.70;;
13425;SDS011;6785;57.918;12.530;2024-03-02T04:49:32;494.77;;;50.63;;
13425;SDS011;6785;57.918;12.530;2024-03-02T04:51:58;336.00;;;43.33;;
13425;SDS011;6785;57.918;12.530;2024-03-02T04:54:25;248.17;;;37.83;;
13425;SDS011;6785;57.918;12.530;2024-03-02T04:56:53;272.43;;;36.57;;
13425;SDS011;6785;57.918;12.530;2024-03-02T04:59:20;173.70;;;31.17;;
13425;SDS011;6785;57.918;12.530;2024-03-02T05:01:47;212.13;;;35.23;;
13425;SDS011;6785;57.918;12.530;2024-03-02T05:04:14;420.43;;;45.77;;
13425;SDS011;6785;57.918;12.530;2024-03-02T05:06:41;335.17;;;39.17;;
13425;SDS011;6785;57.918;12.530;2024-03-02T05:09:08;283.97;;;38.17;;
13425;SDS011;6785;57.918;12.530;2024-03-02T05:11:35;517.17;;;52.73;;
13425;SDS011;6785;57.918;12.530;2024-03-02T05:14:36;285.67;;;37.37;;
13425;SDS011;6785;57.918;12.530;2024-03-02T05:17:04;450.07;;;47.27;;
13425;SDS011;6785;57.918;12.530;2024-03-02T05:19:31;412.50;;;46.33;;
13425;SDS011;6785;57.918;12.530;2024-03-02T05:21:58;364.70;;;42.33;;
13425;SDS011;6785;57.918;12.530;2024-03-02T05:24:25;374.87;;;43.23;;
13425;SDS011;6785;57.918;12.530;2024-03-02T05:26:53;457.63;;;49.77;;
13425;SDS011;6785;57.918;12.530;2024-03-02T05:29:20;440.70;;;49.17;;
13425;SDS011;6785;57.918;12.530;2024-03-02T05:31:49;242.27;;;36.17;;
13425;SDS011;6785;57.918;12.530;2024-03-02T05:34:17;252.20;;;38.47;;
13425;SDS011;6785;57.918;12.530;2024-03-02T05:36:43;294.67;;;40.37;;
13425;SDS011;6785;57.918;12.530;2024-03-02T05:39:10;445.57;;;48.57;;
13425;SDS011;6785;57.918;12.530;2024-03-02T05:41:37;339.73;;;40.47;;
13425;SDS011;6785;57.918;12.530;2024-03-02T05:44:04;430.33;;;51.13;;
13425;SDS011;6785;57.918;12.530;2024-03-02T05:46:31;435.30;;;49.53;;
13425;SDS011;6785;57.918;12.530;2024-03-02T05:48:59;384.93;;;45.27;;
13425;SDS011;6785;57.918;12.530;2024-03-02T05:51:26;151.73;;;31.87;;
13425;SDS011;6785;57.918;12.530;2024-03-02T05:53:53;316.13;;;40.83;;
13425;SDS011;6785;57.918;12.530;2024-03-02T05:56:21;199.17;;;32.80;;
13425;SDS011;6785;57.918;12.530;2024-03-02T05:58:48;357.80;;;42.63;;
13425;SDS011;6785;57.918;12.530;2024-03-02T06:01:26;252.53;;;36.93;;
13425;SDS011;6785;57.918;12.530;2024-03-02T06:03:54;489.27;;;50.70;;
13425;SDS011;6785;57.918;12.530;2024-03-02T06:06:22;541.73;;;53.40;;
13425;SDS011;6785;57.918;12.530;2024-03-02T06:08:49;437.13;;;47.93;;
13425;SDS011;6785;57.918;12.530;2024-03-02T06:11:16;554.23;;;62.50;;
13425;SDS011;6785;57.918;12.530;2024-03-02T06:13:43;375.37;;;43.63;;
13425;SDS011;6785;57.918;12.530;2024-03-02T06:16:10;462.57;;;54.87;;
13425;SDS011;6785;57.918;12.530;2024-03-02T06:18:37;474.23;;;51.30;;
13425;SDS011;6785;57.918;12.530;2024-03-02T06:21:04;225.20;;;36.90;;
13425;SDS011;6785;57.918;12.530;2024-03-02T06:23:32;317.80;;;41.47;;
13425;SDS011;6785;57.918;12.530;2024-03-02T06:25:59;519.97;;;56.33;;
13425;SDS011;6785;57.918;12.530;2024-03-02T06:28:27;331.73;;;45.07;;
13425;SDS011;6785;57.918;12.530;2024-03-02T06:30:54;623.67;;;65.40;;
13425;SDS011;6785;57.918;12.530;2024-03-02T06:33:21;557.70;;;58.03;;
13425;SDS011;6785;57.918;12.530;2024-03-02T06:35:48;369.20;;;50.63;;
13425;SDS011;6785;57.918;12.530;2024-03-02T06:38:15;421.23;;;53.77;;
13425;SDS011;6785;57.918;12.530;2024-03-02T06:40:43;636.87;;;62.50;;
13425;SDS011;6785;57.918;12.530;2024-03-02T06:43:10;288.57;;;41.13;;
13425;SDS011;6785;57.918;12.530;2024-03-02T06:45:37;351.53;;;45.27;;
13425;SDS011;6785;57.918;12.530;2024-03-02T06:48:04;484.43;;;53.57;;
13425;SDS011;6785;57.918;12.530;2024-03-02T06:50:31;479.63;;;52.40;;
13425;SDS011;6785;57.918;12.530;2024-03-02T06:52:58;558.07;;;64.07;;
13425;SDS011;6785;57.918;12.530;2024-03-02T06:55:25;291.03;;;43.10;;
13425;SDS011;6785;57.918;12.530;2024-03-02T06:57:53;481.27;;;53.67;;
13425;SDS011;6785;57.918;12.530;2024-03-02T07:00:20;552.13;;;57.70;;
13425;SDS011;6785;57.918;12.530;2024-03-02T07:02:47;552.93;;;60.53;;
13425;SDS011;6785;57.918;12.530;2024-03-02T07:05:14;533.80;;;59.33;;
13425;SDS011;6785;57.918;12.530;2024-03-02T07:07:41;480.57;;;57.30;;
13425;SDS011;6785;57.918;12.530;2024-03-02T07:10:08;352.27;;;49.70;;
13425;SDS011;6785;57.918;12.530;2024-03-02T07:12:35;464.93;;;54.13;;
13425;SDS011;6785;57.918;12.530;2024-03-02T07:15:04;371.70;;;50.80;;
13425;SDS011;6785;57.918;12.530;2024-03-02T07:17:49;410.53;;;49.93;;
13425;SDS011;6785;57.918;12.530;2024-03-02T07:20:16;278.03;;;46.53;;
13425;SDS011;6785;57.918;12.530;2024-03-02T07:22:43;301.10;;;46.40;;
13425;SDS011;6785;57.918;12.530;2024-03-02T07:25:10;223.40;;;42.83;;
13425;SDS011;6785;57.918;12.530;2024-03-02T07:27:37;224.03;;;42.53;;
13425;SDS011;6785;57.918;12.530;2024-03-02T07:30:06;197.57;;;40.83;;
13425;SDS011;6785;57.918;12.530;2024-03-02T07:32:34;198.30;;;41.40;;
13425;SDS011;6785;57.918;12.530;2024-03-02T07:35:00;213.33;;;41.93;;
13425;SDS011;6785;57.918;12.530;2024-03-02T07:37:28;198.90;;;41.40;;
13425;SDS011;6785;57.918;12.530;2024-03-02T07:39:55;199.37;;;41.30;;
13425;SDS011;6785;57.918;12.530;2024-03-02T07:42:22;186.77;;;42.37;;
13425;SDS011;6785;57.918;12.530;2024-03-02T07:44:49;197.50;;;43.17;;
13425;SDS011;6785;57.918;12.530;2024-03-02T07:47:17;225.33;;;43.53;;
13425;SDS011;6785;57.918;12.530;2024-03-02T07:49:44;180.50;;;41.67;;
13425;SDS011;6785;57.918;12.530;2024-03-02T07:52:12;199.33;;;43.10;;
13425;SDS011;6785;57.918;12.530;2024-03-02T07:54:39;180.10;;;41.37;;
13425;SDS011;6785;57.918;12.530;2024-03-02T07:57:05;211.77;;;43.30;;
13425;SDS011;6785;57.918;12.530;2024-03-02T07:59:33;190.47;;;42.53;;
13425;SDS011;6785;57.918;12.530;2024-03-02T08:02:00;169.87;;;40.23;;
13425;SDS011;6785;57.918;12.530;2024-03-02T08:04:28;182.07;;;41.17;;
13425;SDS011;6785;57.918;12.530;2024-03-02T08:06:55;190.40;;;41.50;;
13425;SDS011;6785;57.918;12.530;2024-03-02T08:09:22;174.23;;;41.70;;
13425;SDS011;6785;57.918;12.530;2024-03-02T08:11:51;186.40;;;41.70;;
13425;SDS011;6785;57.918;12.530;2024-03-02T08:14:18;159.73;;;41.23;;
13425;SDS011;6785;57.918;12.530;2024-03-02T08:16:45;148.97;;;40.47;;
13425;SDS011;6785;57.918;12.530;2024-03-02T08:19:12;168.73;;;40.00;;
13425;SDS011;6785;57.918;12.530;2024-03-02T08:21:40;160.80;;;39.63;;
13425;SDS011;6785;57.918;12.530;2024-03-02T08:24:08;178.87;;;42.50;;
13425;SDS011;6785;57.918;12.530;2024-03-02T08:26:35;179.33;;;42.03;;
13425;SDS011;6785;57.918;12.530;2024-03-02T08:29:02;153.43;;;38.80;;
13425;SDS011;6785;57.918;12.530;2024-03-02T08:31:29;166.20;;;40.77;;
13425;SDS011;6785;57.918;12.530;2024-03-02T08:33:56;139.43;;;37.13;;
13425;SDS011;6785;57.918;12.530;2024-03-02T08:36:23;162.93;;;38.30;;
13425;SDS011;6785;57.918;12.530;2024-03-02T08:38:52;130.80;;;37.13;;
13425;SDS011;6785;57.918;12.530;2024-03-02T08:41:19;161.43;;;39.20;;
13425;SDS011;6785;57.918;12.530;2024-03-02T08:43:46;115.40;;;37.53;;
13425;SDS011;6785;57.918;12.530;2024-03-02T08:46:13;122.77;;;38.80;;
13425;SDS011;6785;57.918;12.530;2024-03-02T08:48:40;108.50;;;37.10;;
13425;SDS011;6785;57.918;12.530;2024-03-02T08:51:06;108.80;;;38.40;;
13425;SDS011;6785;57.918;12.530;2024-03-02T08:53:35;113.60;;;37.40;;
13425;SDS011;6785;57.918;12.530;2024-03-02T08:56:04;116.07;;;36.57;;
13425;SDS011;6785;57.918;12.530;2024-03-02T08:58:31;117.93;;;38.33;;
13425;SDS011;6785;57.918;12.530;2024-03-02T09:00:58;124.53;;;36.97;;
13425;SDS011;6785;57.918;12.530;2024-03-02T09:03:25;110.63;;;36.83;;
13425;SDS011;6785;57.918;12.530;2024-03-02T09:05:52;125.57;;;37.47;;
13425;SDS011;6785;57.918;12.530;2024-03-02T09:08:19;107.30;;;36.60;;
13425;SDS011;6785;57.918;12.530;2024-03-02T09:10:45;104.20;;;36.90;;
13425;SDS011;6785;57.918;12.530;2024-03-02T09:13:13;98.07;;;35.97;;
13425;SDS011;6785;57.918;12.530;2024-03-02T09:15:41;95.50;;;37.37;;
13425;SDS011;6785;57.918;12.530;2024-03-02T09:18:09;97.20;;;36.57;;
13425;SDS011;6785;57.918;12.530;2024-03-02T09:20:36;98.53;;;37.13;;
13425;SDS011;6785;57.918;12.530;2024-03-02T09:23:03;96.70;;;37.40;;
13425;SDS011;6785;57.918;12.530;2024-03-02T09:25:30;86.53;;;35.07;;
13425;SDS011;6785;57.918;12.530;2024-03-02T09:27:57;95.27;;;36.37;;
13425;SDS011;6785;57.918;12.530;2024-03-02T09:30:25;76.43;;;34.50;;
13425;SDS011;6785;57.918;12.530;2024-03-02T09:32:52;89.63;;;34.90;;
13425;SDS011;6785;57.918;12.530;2024-03-02T09:35:19;98.20;;;36.70;;
13425;SDS011;6785;57.918;12.530;2024-03-02T09:37:46;83.80;;;34.10;;
13425;SDS011;6785;57.918;12.530;2024-03-02T09:40:13;90.97;;;34.00;;
13425;SDS011;6785;57.918;12.530;2024-03-02T09:42:41;83.20;;;35.20;;
13425;SDS011;6785;57.918;12.530;2024-03-02T09:45:09;85.50;;;36.77;;
13425;SDS011;6785;57.918;12.530;2024-03-02T09:47:37;92.90;;;37.00;;
13425;SDS011;6785;57.918;12.530;2024-03-02T09:50:05;93.93;;;36.93;;
13425;SDS011;6785;57.918;12.530;2024-03-02T09:52:32;84.33;;;36.40;;
13425;SDS011;6785;57.918;12.530;2024-03-02T09:55:00;84.60;;;36.90;;
13425;SDS011;6785;57.918;12.530;2024-03-02T09:57:27;83.30;;;35.47;;
13425;SDS011;6785;57.918;12.530;2024-03-02T09:59:54;84.50;;;35.53;;
13425;SDS011;6785;57.918;12.530;2024-03-02T10:02:21;85.93;;;36.30;;
13425;SDS011;6785;57.918;12.530;2024-03-02T10:04:50;77.70;;;35.60;;
13425;SDS011;6785;57.918;12.530;2024-03-02T10:07:17;83.43;;;35.00;;
13425;SDS011;6785;57.918;12.530;2024-03-02T10:09:45;76.60;;;35.83;;
13425;SDS011;6785;57.918;12.530;2024-03-02T10:12:13;75.70;;;35.10;;
13425;SDS011;6785;57.918;12.530;2024-03-02T10:14:40;80.40;;;36.43;;
13425;SDS011;6785;57.918;12.530;2024-03-02T10:17:08;74.57;;;34.90;;
13425;SDS011;6785;57.918;12.530;2024-03-02T10:19:36;81.03;;;35.27;;
13425;SDS011;6785;57.918;12.530;2024-03-02T10:22:05;70.50;;;34.70;;
13425;SDS011;6785;57.918;12.530;2024-03-02T10:24:36;73.97;;;35.67;;
13425;SDS011;6785;57.918;12.530;2024-03-02T10:27:07;77.40;;;35.47;;
13425;SDS011;6785;57.918;12.530;2024-03-02T10:29:38;72.23;;;33.50;;
13425;SDS011;6785;57.918;12.530;2024-03-02T10:32:08;69.03;;;33.37;;
13425;SDS011;6785;57.918;12.530;2024-03-02T10:34:36;65.77;;;34.80;;
13425;SDS011;6785;57.918;12.530;2024-03-02T10:37:04;69.87;;;34.07;;
13425;SDS011;6785;57.918;12.530;2024-03-02T10:39:32;68.20;;;34.53;;
13425;SDS011;6785;57.918;12.530;2024-03-02T10:42:02;65.13;;;33.10;;
13425;SDS011;6785;57.918;12.530;2024-03-02T10:44:30;66.70;;;33.27;;
13425;SDS011;6785;57.918;12.530;2024-03-02T10:46:57;67.73;;;33.20;;
13425;SDS011;6785;57.918;12.530;2024-03-02T10:49:29;62.87;;;32.87;;
13425;SDS011;6785;57.918;12.530;2024-03-02T10:51:56;65.40;;;33.10;;
13425;SDS011;6785;57.918;12.530;2024-03-02T10:54:25;65.93;;;32.33;;
13425;SDS011;6785;57.918;12.530;2024-03-02T10:56:54;60.73;;;32.53;;
13425;SDS011;6785;57.918;12.530;2024-03-02T10:59:26;63.50;;;33.07;;
13425;SDS011;6785;57.918;12.530;2024-03-02T11:01:56;65.20;;;33.90;;
13425;SDS011;6785;57.918;12.530;2024-03-02T11:04:25;67.23;;;33.70;;
13425;SDS011;6785;57.918;12.530;2024-03-02T11:06:54;67.90;;;35.73;;
13425;SDS011;6785;57.918;12.530;2024-03-02T11:09:27;67.13;;;34.63;;
13425;SDS011;6785;57.918;12.530;2024-03-02T11:11:57;64.10;;;33.30;;
13425;SDS011;6785;57.918;12.530;2024-03-02T11:14:29;61.10;;;33.07;;
13425;SDS011;6785;57.918;12.530;2024-03-02T11:16:58;66.70;;;33.13;;
13425;SDS011;6785;57.918;12.530;2024-03-02T11:19:26;64.07;;;32.53;;
13425;SDS011;6785;57.918;12.530;2024-03-02T11:21:54;58.67;;;32.47;;
13425;SDS011;6785;57.918;12.530;2024-03-02T11:24:32;71.90;;;32.73;;
13425;SDS011;6785;57.918;12.530;2024-03-02T11:27:00;66.87;;;32.13;;
13425;SDS011;6785;57.918;12.530;2024-03-02T11:29:43;61.83;;;32.53;;
13425;SDS011;6785;57.918;12.530;2024-03-02T11:32:14;67.27;;;33.30;;
13425;SDS011;6785;57.918;12.530;2024-03-02T11:34:47;64.00;;;32.47;;
13425;SDS011;6785;57.918;12.530;2024-03-02T11:37:16;61.87;;;32.00;;
13425;SDS011;6785;57.918;12.530;2024-03-02T11:39:48;62.83;;;32.00;;
13425;SDS011;6785;57.918;12.530;2024-03-02T11:42:16;61.37;;;31.70;;
13425;SDS011;6785;57.918;12.530;2024-03-02T11:44:44;48.60;;;28.80;;
13425;SDS011;6785;57.918;12.530;2024-03-02T11:47:12;37.67;;;23.60;;
13425;SDS011;6785;57.918;12.530;2024-03-02T11:49:41;39.40;;;24.83;;
13425;SDS011;6785;57.918;12.530;2024-03-02T11:52:10;36.80;;;22.27;;
13425;SDS011;6785;57.918;12.530;2024-03-02T11:54:39;31.27;;;20.10;;
13425;SDS011;6785;57.918;12.530;2024-03-02T11:57:13;22.60;;;16.40;;
13425;SDS011;6785;57.918;12.530;2024-03-02T11:59:40;26.30;;;18.33;;
13425;SDS011;6785;57.918;12.530;2024-03-02T12:02:12;21.43;;;14.53;;
13425;SDS011;6785;57.918;12.530;2024-03-02T12:04:42;19.30;;;13.93;;
13425;SDS011;6785;57.918;12.530;2024-03-02T12:07:10;19.50;;;14.57;;
13425;SDS011;6785;57.918;12.530;2024-03-02T12:09:37;21.33;;;14.80;;
13425;SDS011;6785;57.918;12.530;2024-03-02T12:12:05;19.13;;;13.80;;
13425;SDS011;6785;57.918;12.530;2024-03-02T12:14:34;19.70;;;15.10;;
13425;SDS011;6785;57.918;12.530;2024-03-02T12:17:02;20.70;;;16.27;;
13425;SDS011;6785;57.918;12.530;2024-03-02T12:19:31;21.13;;;15.47;;
13425;SDS011;6785;57.918;12.530;2024-03-02T12:21:59;21.73;;;16.27;;
13425;SDS011;6785;57.918;12.530;2024-03-02T12:24:26;25.40;;;18.63;;
13425;SDS011;6785;57.918;12.530;2024-03-02T12:26:54;27.80;;;20.40;;
13425;SDS011;6785;57.918;12.530;2024-03-02T12:29:22;28.57;;;21.67;;
13425;SDS011;6785;57.918;12.530;2024-03-02T12:31:52;22.07;;;17.07;;
13425;SDS011;6785;57.918;12.530;2024-03-02T12:34:19;18.90;;;14.13;;
13425;SDS011;6785;57.918;12.530;2024-03-02T12:36:47;19.70;;;15.10;;
13425;SDS011;6785;57.918;12.530;2024-03-02T12:39:18;18.90;;;13.90;;
13425;SDS011;6785;57.918;12.530;2024-03-02T12:41:45;16.60;;;11.93;;
13425;SDS011;6785;57.918;12.530;2024-03-02T12:44:15;17.03;;;12.20;;
13425;SDS011;6785;57.918;12.530;2024-03-02T12:46:42;15.07;;;12.20;;
13425;SDS011;6785;57.918;12.530;2024-03-02T12:49:11;16.33;;;12.63;;
13425;SDS011;6785;57.918;12.530;2024-03-02T12:51:39;17.53;;;13.10;;
13425;SDS011;6785;57.918;12.530;2024-03-02T12:54:06;17.70;;;13.37;;
13425;SDS011;6785;57.918;12.530;2024-03-02T12:56:35;16.90;;;13.27;;
13425;SDS011;6785;57.918;12.530;2024-03-02T12:59:03;16.67;;;13.33;;
13425;SDS011;6785;57.918;12.530;2024-03-02T13:01:30;17.50;;;14.40;;
13425;SDS011;6785;57.918;12.530;2024-03-02T13:03:57;15.50;;;11.77;;
13425;SDS011;6785;57.918;12.530;2024-03-02T13:06:26;15.60;;;12.40;;
13425;SDS011;6785;57.918;12.530;2024-03-02T13:08:54;18.23;;;13.10;;
13425;SDS011;6785;57.918;12.530;2024-03-02T13:11:21;19.50;;;14.13;;
13425;SDS011;6785;57.918;12.530;2024-03-02T13:13:49;19.87;;;14.57;;
13425;SDS011;6785;57.918;12.530;2024-03-02T13:16:16;19.27;;;13.47;;
13425;SDS011;6785;57.918;12.530;2024-03-02T13:18:45;20.37;;;14.67;;
13425;SDS011;6785;57.918;12.530;2024-03-02T13:21:12;17.93;;;14.33;;
13425;SDS011;6785;57.918;12.530;2024-03-02T13:23:40;21.47;;;14.60;;
13425;SDS011;6785;57.918;12.530;2024-03-02T13:26:07;19.93;;;14.33;;
13425;SDS011;6785;57.918;12.530;2024-03-02T13:28:35;22.93;;;14.67;;
13425;SDS011;6785;57.918;12.530;2024-03-02T13:31:03;18.67;;;12.50;;
13425;SDS011;6785;57.918;12.530;2024-03-02T13:33:34;18.00;;;13.30;;
13425;SDS011;6785;57.918;12.530;2024-03-02T13:36:01;19.27;;;15.20;;
13425;SDS011;6785;57.918;12.530;2024-03-02T13:38:28;19.73;;;15.07;;
13425;SDS011;6785;57.918;12.530;2024-03-02T13:40:56;20.53;;;15.70;;
13425;SDS011;6785;57.918;12.530;2024-03-02T13:43:25;18.87;;;14.07;;
13425;SDS011;6785;57.918;12.530;2024-03-02T13:46:02;18.93;;;14.27;;
13425;SDS011;6785;57.918;12.530;2024-03-02T13:48:29;16.90;;;12.97;;
13425;SDS011;6785;57.918;12.530;2024-03-02T13:50:57;15.97;;;12.87;;
13425;SDS011;6785;57.918;12.530;2024-03-02T13:53:24;17.70;;;13.17;;
13425;SDS011;6785;57.918;12.530;2024-03-02T13:55:51;16.17;;;12.80;;
13425;SDS011;6785;57.918;12.530;2024-03-02T13:58:22;17.43;;;12.53;;
13425;SDS011;6785;57.918;12.530;2024-03-02T14:00:51;16.33;;;12.73;;
13425;SDS011;6785;57.918;12.530;2024-03-02T14:03:18;17.87;;;13.13;;
13425;SDS011;6785;57.918;12.530;2024-03-02T14:05:45;17.07;;;12.53;;
13425;SDS011;6785;57.918;12.530;2024-03-02T14:08:12;15.47;;;11.93;;
13425;SDS011;6785;57.918;12.530;2024-03-02T14:10:39;18.53;;;12.37;;
13425;SDS011;6785;57.918;12.530;2024-03-02T14:13:09;15.43;;;11.60;;
13425;SDS011;6785;57.918;12.530;2024-03-02T14:15:38;15.20;;;12.33;;
13425;SDS011;6785;57.918;12.530;2024-03-02T14:18:05;16.30;;;11.40;;
13425;SDS011;6785;57.918;12.530;2024-03-02T14:20:35;17.07;;;12.70;;
13425;SDS011;6785;57.918;12.530;2024-03-02T14:23:02;15.90;;;11.63;;